sensor_id;sensor_type;location;lat;lon;timestamp;pressure;altitude;pressure_sealevel;temperature
9119;BMP180;4594;50.994;7.126;2024-01-30T00:01:51;101833.00;;;13.40
9119;BMP180;4594;50.994;7.126;2024-01-30T00:04:16;101829.00;;;13.40
9119;BMP180;4594;50.994;7.126;2024-01-30T00:06:43;101831.00;;;13.40
9119;BMP180;4594;50.994;7.126;2024-01-30T00:09:09;101830.00;;;13.40
9119;BMP180;4594;50.994;7.126;2024-01-30T00:11:37;101818.00;;;13.40
9119;BMP180;4594;50.994;7.126;2024-01-30T00:14:03;101821.00;;;13.40
9119;BMP180;4594;50.994;7.126;2024-01-30T00:16:29;101821.00;;;13.30
9119;BMP180;4594;50.994;7.126;2024-01-30T00:18:55;101823.00;;;13.30
9119;BMP180;4594;50.994;7.126;2024-01-30T00:21:22;101823.00;;;13.30
9119;BMP180;4594;50.994;7.126;2024-01-30T00:23:48;101822.00;;;13.30
9119;BMP180;4594;50.994;7.126;2024-01-30T00:26:14;101819.00;;;13.30
9119;BMP180;4594;50.994;7.126;2024-01-30T00:28:41;101818.00;;;13.30
9119;BMP180;4594;50.994;7.126;2024-01-30T00:31:07;101814.00;;;13.30
9119;BMP180;4594;50.994;7.126;2024-01-30T00:33:33;101810.00;;;13.30
9119;BMP180;4594;50.994;7.126;2024-01-30T00:35:58;101819.00;;;13.30
9119;BMP180;4594;50.994;7.126;2024-01-30T00:38:24;101806.00;;;13.30
9119;BMP180;4594;50.994;7.126;2024-01-30T00:40:50;101812.00;;;13.30
9119;BMP180;4594;50.994;7.126;2024-01-30T00:43:16;101810.00;;;13.30
9119;BMP180;4594;50.994;7.126;2024-01-30T00:45:43;101810.00;;;13.20
9119;BMP180;4594;50.994;7.126;2024-01-30T00:48:09;101813.00;;;13.20
9119;BMP180;4594;50.994;7.126;2024-01-30T00:50:35;101799.00;;;13.20
9119;BMP180;4594;50.994;7.126;2024-01-30T00:53:01;101808.00;;;13.20
9119;BMP180;4594;50.994;7.126;2024-01-30T00:55:26;101808.00;;;13.20
9119;BMP180;4594;50.994;7.126;2024-01-30T00:57:52;101816.00;;;13.20
9119;BMP180;4594;50.994;7.126;2024-01-30T01:00:18;101805.00;;;13.20
9119;BMP180;4594;50.994;7.126;2024-01-30T01:02:44;101805.00;;;13.20
9119;BMP180;4594;50.994;7.126;2024-01-30T01:05:10;101808.00;;;13.20
9119;BMP180;4594;50.994;7.126;2024-01-30T01:07:36;101809.00;;;13.20
9119;BMP180;4594;50.994;7.126;2024-01-30T01:10:02;101794.00;;;13.20
9119;BMP180;4594;50.994;7.126;2024-01-30T01:12:28;101804.00;;;13.20
9119;BMP180;4594;50.994;7.126;2024-01-30T01:14:53;101801.00;;;13.20
9119;BMP180;4594;50.994;7.126;2024-01-30T01:17:19;101817.00;;;13.20
9119;BMP180;4594;50.994;7.126;2024-01-30T01:19:45;101810.00;;;13.20
9119;BMP180;4594;50.994;7.126;2024-01-30T01:22:11;101808.00;;;13.20
9119;BMP180;4594;50.994;7.126;2024-01-30T01:24:37;101800.00;;;13.30
9119;BMP180;4594;50.994;7.126;2024-01-30T01:27:03;101809.00;;;13.30
9119;BMP180;4594;50.994;7.126;2024-01-30T01:29:29;101808.00;;;13.30
9119;BMP180;4594;50.994;7.126;2024-01-30T01:31:55;101809.00;;;13.30
9119;BMP180;4594;50.994;7.126;2024-01-30T01:34:22;101805.00;;;13.30
9119;BMP180;4594;50.994;7.126;2024-01-30T01:36:49;101810.00;;;13.40
9119;BMP180;4594;50.994;7.126;2024-01-30T01:39:15;101800.00;;;13.40
9119;BMP180;4594;50.994;7.126;2024-01-30T01:41:41;101800.00;;;13.40
9119;BMP180;4594;50.994;7.126;2024-01-30T01:44:08;101800.00;;;13.40
9119;BMP180;4594;50.994;7.126;2024-01-30T01:46:34;101804.00;;;13.50
9119;BMP180;4594;50.994;7.126;2024-01-30T01:49:02;101800.00;;;13.50
9119;BMP180;4594;50.994;7.126;2024-01-30T01:51:33;101802.00;;;13.50
9119;BMP180;4594;50.994;7.126;2024-01-30T01:54:04;101804.00;;;13.50
9119;BMP180;4594;50.994;7.126;2024-01-30T01:56:32;101800.00;;;13.50
9119;BMP180;4594;50.994;7.126;2024-01-30T01:59:07;101797.00;;;13.50
9119;BMP180;4594;50.994;7.126;2024-01-30T02:01:36;101793.00;;;13.50
9119;BMP180;4594;50.994;7.126;2024-01-30T02:04:02;101791.00;;;13.60
9119;BMP180;4594;50.994;7.126;2024-01-30T02:06:28;101791.00;;;13.60
9119;BMP180;4594;50.994;7.126;2024-01-30T02:08:55;101788.00;;;13.60
9119;BMP180;4594;50.994;7.126;2024-01-30T02:11:22;101793.00;;;13.60
9119;BMP180;4594;50.994;7.126;2024-01-30T02:13:49;101788.00;;;13.60
9119;BMP180;4594;50.994;7.126;2024-01-30T02:16:16;101779.00;;;13.50
9119;BMP180;4594;50.994;7.126;2024-01-30T02:18:43;101790.00;;;13.50
9119;BMP180;4594;50.994;7.126;2024-01-30T02:21:11;101782.00;;;13.50
9119;BMP180;4594;50.994;7.126;2024-01-30T02:23:37;101785.00;;;13.50
9119;BMP180;4594;50.994;7.126;2024-01-30T02:26:03;101786.00;;;13.50
9119;BMP180;4594;50.994;7.126;2024-01-30T02:28:29;101778.00;;;13.50
9119;BMP180;4594;50.994;7.126;2024-01-30T02:30:55;101782.00;;;13.50
9119;BMP180;4594;50.994;7.126;2024-01-30T02:33:20;101778.00;;;13.50
9119;BMP180;4594;50.994;7.126;2024-01-30T02:35:48;101777.00;;;13.50
9119;BMP180;4594;50.994;7.126;2024-01-30T02:38:15;101784.00;;;13.50
9119;BMP180;4594;50.994;7.126;2024-01-30T02:40:41;101782.00;;;13.50
9119;BMP180;4594;50.994;7.126;2024-01-30T02:43:07;101775.00;;;13.50
9119;BMP180;4594;50.994;7.126;2024-01-30T02:45:32;101776.00;;;13.50
9119;BMP180;4594;50.994;7.126;2024-01-30T02:47:58;101780.00;;;13.50
9119;BMP180;4594;50.994;7.126;2024-01-30T02:50:23;101783.00;;;13.50
9119;BMP180;4594;50.994;7.126;2024-01-30T02:52:49;101775.00;;;13.60
9119;BMP180;4594;50.994;7.126;2024-01-30T02:55:15;101765.00;;;13.60
9119;BMP180;4594;50.994;7.126;2024-01-30T02:57:43;101776.00;;;13.60
9119;BMP180;4594;50.994;7.126;2024-01-30T03:00:09;101773.00;;;13.60
9119;BMP180;4594;50.994;7.126;2024-01-30T03:02:36;101761.00;;;13.60
9119;BMP180;4594;50.994;7.126;2024-01-30T03:05:02;101760.00;;;13.60
9119;BMP180;4594;50.994;7.126;2024-01-30T03:07:29;101764.00;;;13.60
9119;BMP180;4594;50.994;7.126;2024-01-30T03:09:55;101768.00;;;13.60
9119;BMP180;4594;50.994;7.126;2024-01-30T03:12:21;101764.00;;;13.60
9119;BMP180;4594;50.994;7.126;2024-01-30T03:14:47;101749.00;;;13.60
9119;BMP180;4594;50.994;7.126;2024-01-30T03:17:14;101761.00;;;13.60
9119;BMP180;4594;50.994;7.126;2024-01-30T03:19:41;101764.00;;;13.60
9119;BMP180;4594;50.994;7.126;2024-01-30T03:22:07;101757.00;;;13.60
9119;BMP180;4594;50.994;7.126;2024-01-30T03:24:32;101752.00;;;13.60
9119;BMP180;4594;50.994;7.126;2024-01-30T03:26:58;101744.00;;;13.60
9119;BMP180;4594;50.994;7.126;2024-01-30T03:29:24;101757.00;;;13.60
9119;BMP180;4594;50.994;7.126;2024-01-30T03:31:49;101750.00;;;13.60
9119;BMP180;4594;50.994;7.126;2024-01-30T03:34:15;101735.00;;;13.60
9119;BMP180;4594;50.994;7.126;2024-01-30T03:36:41;101743.00;;;13.60
9119;BMP180;4594;50.994;7.126;2024-01-30T03:39:06;101737.00;;;13.60
9119;BMP180;4594;50.994;7.126;2024-01-30T03:41:32;101736.00;;;13.60
9119;BMP180;4594;50.994;7.126;2024-01-30T03:43:59;101743.00;;;13.60
9119;BMP180;4594;50.994;7.126;2024-01-30T03:46:24;101750.00;;;13.60
9119;BMP180;4594;50.994;7.126;2024-01-30T03:48:50;101751.00;;;13.60
9119;BMP180;4594;50.994;7.126;2024-01-30T03:51:16;101731.00;;;13.60
9119;BMP180;4594;50.994;7.126;2024-01-30T03:53:42;101733.00;;;13.60
9119;BMP180;4594;50.994;7.126;2024-01-30T03:56:09;101726.00;;;13.60
9119;BMP180;4594;50.994;7.126;2024-01-30T03:58:35;101743.00;;;13.60
9119;BMP180;4594;50.994;7.126;2024-01-30T04:01:01;101742.00;;;13.50
9119;BMP180;4594;50.994;7.126;2024-01-30T04:03:27;101741.00;;;13.50
9119;BMP180;4594;50.994;7.126;2024-01-30T04:05:53;101738.00;;;13.50
9119;BMP180;4594;50.994;7.126;2024-01-30T04:08:19;101735.00;;;13.50
9119;BMP180;4594;50.994;7.126;2024-01-30T04:10:45;101723.00;;;13.50
9119;BMP180;4594;50.994;7.126;2024-01-30T04:13:11;101721.00;;;13.50
9119;BMP180;4594;50.994;7.126;2024-01-30T04:15:37;101731.00;;;13.50
9119;BMP180;4594;50.994;7.126;2024-01-30T04:18:03;101726.00;;;13.50
9119;BMP180;4594;50.994;7.126;2024-01-30T04:20:29;101724.00;;;13.50
9119;BMP180;4594;50.994;7.126;2024-01-30T04:22:55;101729.00;;;13.50
9119;BMP180;4594;50.994;7.126;2024-01-30T04:25:21;101726.00;;;13.50
9119;BMP180;4594;50.994;7.126;2024-01-30T04:27:47;101718.00;;;13.60
9119;BMP180;4594;50.994;7.126;2024-01-30T04:30:13;101721.00;;;13.50
9119;BMP180;4594;50.994;7.126;2024-01-30T04:32:38;101732.00;;;13.50
9119;BMP180;4594;50.994;7.126;2024-01-30T04:35:04;101730.00;;;13.50
9119;BMP180;4594;50.994;7.126;2024-01-30T04:37:30;101726.00;;;13.60
9119;BMP180;4594;50.994;7.126;2024-01-30T04:39:56;101724.00;;;13.60
9119;BMP180;4594;50.994;7.126;2024-01-30T04:42:22;101721.00;;;13.60
9119;BMP180;4594;50.994;7.126;2024-01-30T04:44:47;101720.00;;;13.50
9119;BMP180;4594;50.994;7.126;2024-01-30T04:47:13;101716.00;;;13.50
9119;BMP180;4594;50.994;7.126;2024-01-30T04:49:39;101712.00;;;13.50
9119;BMP180;4594;50.994;7.126;2024-01-30T04:52:06;101718.00;;;13.50
9119;BMP180;4594;50.994;7.126;2024-01-30T04:54:32;101718.00;;;13.50
9119;BMP180;4594;50.994;7.126;2024-01-30T04:56:58;101718.00;;;13.50
9119;BMP180;4594;50.994;7.126;2024-01-30T04:59:24;101723.00;;;13.40
9119;BMP180;4594;50.994;7.126;2024-01-30T05:01:50;101731.00;;;13.40
9119;BMP180;4594;50.994;7.126;2024-01-30T05:04:15;101720.00;;;13.40
9119;BMP180;4594;50.994;7.126;2024-01-30T05:06:41;101721.00;;;13.40
9119;BMP180;4594;50.994;7.126;2024-01-30T05:09:07;101720.00;;;13.40
9119;BMP180;4594;50.994;7.126;2024-01-30T05:11:42;101731.00;;;13.40
9119;BMP180;4594;50.994;7.126;2024-01-30T05:14:08;101731.00;;;13.30
9119;BMP180;4594;50.994;7.126;2024-01-30T05:16:37;101727.00;;;13.30
9119;BMP180;4594;50.994;7.126;2024-01-30T05:19:03;101733.00;;;13.30
9119;BMP180;4594;50.994;7.126;2024-01-30T05:21:28;101729.00;;;13.30
9119;BMP180;4594;50.994;7.126;2024-01-30T05:23:54;101717.00;;;13.20
9119;BMP180;4594;50.994;7.126;2024-01-30T05:26:19;101715.00;;;13.20
9119;BMP180;4594;50.994;7.126;2024-01-30T05:28:45;101723.00;;;13.10
9119;BMP180;4594;50.994;7.126;2024-01-30T05:31:11;101727.00;;;13.10
9119;BMP180;4594;50.994;7.126;2024-01-30T05:33:36;101720.00;;;13.10
9119;BMP180;4594;50.994;7.126;2024-01-30T05:36:03;101710.00;;;13.00
9119;BMP180;4594;50.994;7.126;2024-01-30T05:38:29;101716.00;;;13.00
9119;BMP180;4594;50.994;7.126;2024-01-30T05:40:55;101707.00;;;12.90
9119;BMP180;4594;50.994;7.126;2024-01-30T05:43:20;101710.00;;;12.90
9119;BMP180;4594;50.994;7.126;2024-01-30T05:45:46;101719.00;;;12.90
9119;BMP180;4594;50.994;7.126;2024-01-30T05:48:12;101720.00;;;12.80
9119;BMP180;4594;50.994;7.126;2024-01-30T05:50:37;101717.00;;;12.80
9119;BMP180;4594;50.994;7.126;2024-01-30T05:53:03;101721.00;;;12.80
9119;BMP180;4594;50.994;7.126;2024-01-30T05:55:29;101710.00;;;12.80
9119;BMP180;4594;50.994;7.126;2024-01-30T05:57:54;101711.00;;;12.80
9119;BMP180;4594;50.994;7.126;2024-01-30T06:00:21;101718.00;;;12.80
9119;BMP180;4594;50.994;7.126;2024-01-30T06:02:46;101706.00;;;12.80
9119;BMP180;4594;50.994;7.126;2024-01-30T06:05:12;101719.00;;;12.90
9119;BMP180;4594;50.994;7.126;2024-01-30T06:07:38;101722.00;;;12.90
9119;BMP180;4594;50.994;7.126;2024-01-30T06:10:04;101707.00;;;12.90
9119;BMP180;4594;50.994;7.126;2024-01-30T06:12:30;101722.00;;;12.90
9119;BMP180;4594;50.994;7.126;2024-01-30T06:14:56;101714.00;;;12.90
9119;BMP180;4594;50.994;7.126;2024-01-30T06:17:23;101717.00;;;12.90
9119;BMP180;4594;50.994;7.126;2024-01-30T06:19:49;101715.00;;;13.00
9119;BMP180;4594;50.994;7.126;2024-01-30T06:22:15;101732.00;;;13.00
9119;BMP180;4594;50.994;7.126;2024-01-30T06:24:41;101723.00;;;13.00
9119;BMP180;4594;50.994;7.126;2024-01-30T06:27:07;101715.00;;;13.00
9119;BMP180;4594;50.994;7.126;2024-01-30T06:29:33;101712.00;;;13.00
9119;BMP180;4594;50.994;7.126;2024-01-30T06:31:59;101711.00;;;13.00
9119;BMP180;4594;50.994;7.126;2024-01-30T06:34:24;101715.00;;;13.10
9119;BMP180;4594;50.994;7.126;2024-01-30T06:36:52;101722.00;;;13.10
9119;BMP180;4594;50.994;7.126;2024-01-30T06:39:17;101716.00;;;13.10
9119;BMP180;4594;50.994;7.126;2024-01-30T06:41:43;101712.00;;;13.10
9119;BMP180;4594;50.994;7.126;2024-01-30T06:44:09;101708.00;;;13.10
9119;BMP180;4594;50.994;7.126;2024-01-30T06:46:35;101721.00;;;13.20
9119;BMP180;4594;50.994;7.126;2024-01-30T06:49:01;101710.00;;;13.20
9119;BMP180;4594;50.994;7.126;2024-01-30T06:51:27;101703.00;;;13.20
9119;BMP180;4594;50.994;7.126;2024-01-30T06:53:52;101709.00;;;13.20
9119;BMP180;4594;50.994;7.126;2024-01-30T06:56:18;101709.00;;;13.30
9119;BMP180;4594;50.994;7.126;2024-01-30T06:58:52;101707.00;;;13.30
9119;BMP180;4594;50.994;7.126;2024-01-30T07:01:18;101698.00;;;13.30
9119;BMP180;4594;50.994;7.126;2024-01-30T07:03:44;101700.00;;;13.30
9119;BMP180;4594;50.994;7.126;2024-01-30T07:06:10;101705.00;;;13.40
9119;BMP180;4594;50.994;7.126;2024-01-30T07:08:36;101691.00;;;13.40
9119;BMP180;4594;50.994;7.126;2024-01-30T07:11:07;101705.00;;;13.40
9119;BMP180;4594;50.994;7.126;2024-01-30T07:13:34;101712.00;;;13.50
9119;BMP180;4594;50.994;7.126;2024-01-30T07:16:00;101715.00;;;13.50
9119;BMP180;4594;50.994;7.126;2024-01-30T07:18:26;101708.00;;;13.50
9119;BMP180;4594;50.994;7.126;2024-01-30T07:20:51;101719.00;;;13.60
9119;BMP180;4594;50.994;7.126;2024-01-30T07:23:17;101718.00;;;13.60
9119;BMP180;4594;50.994;7.126;2024-01-30T07:25:44;101720.00;;;13.60
9119;BMP180;4594;50.994;7.126;2024-01-30T07:28:10;101734.00;;;13.70
9119;BMP180;4594;50.994;7.126;2024-01-30T07:30:38;101732.00;;;13.70
9119;BMP180;4594;50.994;7.126;2024-01-30T07:33:04;101722.00;;;13.70
9119;BMP180;4594;50.994;7.126;2024-01-30T07:35:30;101737.00;;;13.80
9119;BMP180;4594;50.994;7.126;2024-01-30T07:37:56;101725.00;;;13.80
9119;BMP180;4594;50.994;7.126;2024-01-30T07:40:22;101728.00;;;13.80
9119;BMP180;4594;50.994;7.126;2024-01-30T07:42:48;101733.00;;;13.80
9119;BMP180;4594;50.994;7.126;2024-01-30T07:45:14;101736.00;;;13.90
9119;BMP180;4594;50.994;7.126;2024-01-30T07:47:39;101744.00;;;13.90
9119;BMP180;4594;50.994;7.126;2024-01-30T07:50:06;101744.00;;;14.00
9119;BMP180;4594;50.994;7.126;2024-01-30T07:52:32;101745.00;;;14.00
9119;BMP180;4594;50.994;7.126;2024-01-30T07:54:57;101750.00;;;14.10
9119;BMP180;4594;50.994;7.126;2024-01-30T07:57:23;101741.00;;;14.10
9119;BMP180;4594;50.994;7.126;2024-01-30T07:59:48;101735.00;;;14.10
9119;BMP180;4594;50.994;7.126;2024-01-30T08:02:14;101741.00;;;14.20
9119;BMP180;4594;50.994;7.126;2024-01-30T08:04:40;101732.00;;;14.20
9119;BMP180;4594;50.994;7.126;2024-01-30T08:07:06;101737.00;;;14.20
9119;BMP180;4594;50.994;7.126;2024-01-30T08:09:32;101745.00;;;14.30
9119;BMP180;4594;50.994;7.126;2024-01-30T08:11:57;101746.00;;;14.30
9119;BMP180;4594;50.994;7.126;2024-01-30T08:14:24;101756.00;;;14.40
9119;BMP180;4594;50.994;7.126;2024-01-30T08:16:51;101752.00;;;14.40
9119;BMP180;4594;50.994;7.126;2024-01-30T08:19:17;101753.00;;;14.50
9119;BMP180;4594;50.994;7.126;2024-01-30T08:21:42;101751.00;;;14.50
9119;BMP180;4594;50.994;7.126;2024-01-30T08:24:08;101747.00;;;14.60
9119;BMP180;4594;50.994;7.126;2024-01-30T08:26:34;101744.00;;;14.60
9119;BMP180;4594;50.994;7.126;2024-01-30T08:29:01;101742.00;;;14.70
9119;BMP180;4594;50.994;7.126;2024-01-30T08:31:27;101748.00;;;14.70
9119;BMP180;4594;50.994;7.126;2024-01-30T08:33:52;101746.00;;;14.80
9119;BMP180;4594;50.994;7.126;2024-01-30T08:36:19;101738.00;;;14.80
9119;BMP180;4594;50.994;7.126;2024-01-30T08:38:45;101727.00;;;14.90
9119;BMP180;4594;50.994;7.126;2024-01-30T08:41:11;101731.00;;;14.90
9119;BMP180;4594;50.994;7.126;2024-01-30T08:43:36;101729.00;;;14.90
9119;BMP180;4594;50.994;7.126;2024-01-30T08:46:03;101727.00;;;14.90
9119;BMP180;4594;50.994;7.126;2024-01-30T08:48:29;101741.00;;;15.00
9119;BMP180;4594;50.994;7.126;2024-01-30T08:50:55;101746.00;;;15.00
9119;BMP180;4594;50.994;7.126;2024-01-30T08:53:21;101759.00;;;15.10
9119;BMP180;4594;50.994;7.126;2024-01-30T08:55:46;101747.00;;;15.10
9119;BMP180;4594;50.994;7.126;2024-01-30T08:58:12;101757.00;;;15.20
9119;BMP180;4594;50.994;7.126;2024-01-30T09:00:38;101765.00;;;15.20
9119;BMP180;4594;50.994;7.126;2024-01-30T09:03:04;101767.00;;;15.30
9119;BMP180;4594;50.994;7.126;2024-01-30T09:05:30;101769.00;;;15.40
9119;BMP180;4594;50.994;7.126;2024-01-30T09:07:55;101774.00;;;15.50
9119;BMP180;4594;50.994;7.126;2024-01-30T09:10:21;101770.00;;;15.50
9119;BMP180;4594;50.994;7.126;2024-01-30T09:12:47;101764.00;;;15.70
9119;BMP180;4594;50.994;7.126;2024-01-30T09:15:13;101768.00;;;15.80
9119;BMP180;4594;50.994;7.126;2024-01-30T09:17:39;101776.00;;;16.00
9119;BMP180;4594;50.994;7.126;2024-01-30T09:20:05;101782.00;;;16.10
9119;BMP180;4594;50.994;7.126;2024-01-30T09:22:31;101775.00;;;16.20
9119;BMP180;4594;50.994;7.126;2024-01-30T09:24:57;101781.00;;;16.30
9119;BMP180;4594;50.994;7.126;2024-01-30T09:27:24;101778.00;;;16.40
9119;BMP180;4594;50.994;7.126;2024-01-30T09:29:49;101789.00;;;16.50
9119;BMP180;4594;50.994;7.126;2024-01-30T09:32:15;101786.00;;;16.60
9119;BMP180;4594;50.994;7.126;2024-01-30T09:34:41;101796.00;;;16.70
9119;BMP180;4594;50.994;7.126;2024-01-30T09:37:07;101803.00;;;16.90
9119;BMP180;4594;50.994;7.126;2024-01-30T09:39:33;101806.00;;;17.00
9119;BMP180;4594;50.994;7.126;2024-01-30T09:42:27;101817.00;;;17.10
9119;BMP180;4594;50.994;7.126;2024-01-30T09:44:54;101801.00;;;17.20
9119;BMP180;4594;50.994;7.126;2024-01-30T09:47:20;101803.00;;;17.30
9119;BMP180;4594;50.994;7.126;2024-01-30T09:49:46;101799.00;;;17.40
9119;BMP180;4594;50.994;7.126;2024-01-30T09:52:13;101802.00;;;17.40
9119;BMP180;4594;50.994;7.126;2024-01-30T09:54:40;101819.00;;;17.50
9119;BMP180;4594;50.994;7.126;2024-01-30T09:57:06;101819.00;;;17.50
9119;BMP180;4594;50.994;7.126;2024-01-30T09:59:33;101817.00;;;17.50
9119;BMP180;4594;50.994;7.126;2024-01-30T10:01:59;101822.00;;;17.50
9119;BMP180;4594;50.994;7.126;2024-01-30T10:04:24;101821.00;;;17.60
9119;BMP180;4594;50.994;7.126;2024-01-30T10:06:51;101805.00;;;17.60
9119;BMP180;4594;50.994;7.126;2024-01-30T10:09:17;101810.00;;;17.70
9119;BMP180;4594;50.994;7.126;2024-01-30T10:11:42;101819.00;;;17.70
9119;BMP180;4594;50.994;7.126;2024-01-30T10:14:08;101824.00;;;17.70
9119;BMP180;4594;50.994;7.126;2024-01-30T10:16:37;101823.00;;;17.70
9119;BMP180;4594;50.994;7.126;2024-01-30T10:19:02;101817.00;;;17.80
9119;BMP180;4594;50.994;7.126;2024-01-30T10:21:30;101823.00;;;18.10
9119;BMP180;4594;50.994;7.126;2024-01-30T10:23:55;101822.00;;;18.10
9119;BMP180;4594;50.994;7.126;2024-01-30T10:26:21;101824.00;;;18.20
9119;BMP180;4594;50.994;7.126;2024-01-30T10:28:48;101825.00;;;18.40
9119;BMP180;4594;50.994;7.126;2024-01-30T10:31:18;101821.00;;;18.50
9119;BMP180;4594;50.994;7.126;2024-01-30T10:33:46;101821.00;;;18.70
9119;BMP180;4594;50.994;7.126;2024-01-30T10:36:14;101818.00;;;18.80
9119;BMP180;4594;50.994;7.126;2024-01-30T10:38:42;101823.00;;;18.90
9119;BMP180;4594;50.994;7.126;2024-01-30T10:41:12;101824.00;;;19.00
9119;BMP180;4594;50.994;7.126;2024-01-30T10:44:01;101825.00;;;19.00
9119;BMP180;4594;50.994;7.126;2024-01-30T10:46:31;101827.00;;;19.00
9119;BMP180;4594;50.994;7.126;2024-01-30T10:48:58;101825.00;;;18.90
9119;BMP180;4594;50.994;7.126;2024-01-30T10:51:28;101820.00;;;18.90
9119;BMP180;4594;50.994;7.126;2024-01-30T10:53:55;101819.00;;;18.90
9119;BMP180;4594;50.994;7.126;2024-01-30T10:56:22;101815.00;;;18.80
9119;BMP180;4594;50.994;7.126;2024-01-30T10:58:51;101814.00;;;18.80
9119;BMP180;4594;50.994;7.126;2024-01-30T11:01:22;101817.00;;;18.80
9119;BMP180;4594;50.994;7.126;2024-01-30T11:03:52;101808.00;;;18.80
9119;BMP180;4594;50.994;7.126;2024-01-30T11:06:18;101801.00;;;18.80
9119;BMP180;4594;50.994;7.126;2024-01-30T11:09:01;101800.00;;;18.90
9119;BMP180;4594;50.994;7.126;2024-01-30T11:11:29;101802.00;;;18.90
9119;BMP180;4594;50.994;7.126;2024-01-30T11:13:54;101794.00;;;18.90
9119;BMP180;4594;50.994;7.126;2024-01-30T11:16:20;101791.00;;;18.90
9119;BMP180;4594;50.994;7.126;2024-01-30T11:18:50;101795.00;;;18.90
9119;BMP180;4594;50.994;7.126;2024-01-30T11:21:19;101794.00;;;18.90
9119;BMP180;4594;50.994;7.126;2024-01-30T11:23:44;101794.00;;;18.90
9119;BMP180;4594;50.994;7.126;2024-01-30T11:26:11;101800.00;;;18.90
9119;BMP180;4594;50.994;7.126;2024-01-30T11:28:38;101805.00;;;18.90
9119;BMP180;4594;50.994;7.126;2024-01-30T11:31:07;101814.00;;;19.00
9119;BMP180;4594;50.994;7.126;2024-01-30T11:33:33;101800.00;;;19.00
9119;BMP180;4594;50.994;7.126;2024-01-30T11:36:00;101811.00;;;19.00
9119;BMP180;4594;50.994;7.126;2024-01-30T11:38:28;101800.00;;;19.10
9119;BMP180;4594;50.994;7.126;2024-01-30T11:40:57;101786.00;;;19.10
9119;BMP180;4594;50.994;7.126;2024-01-30T11:43:23;101789.00;;;19.20
9119;BMP180;4594;50.994;7.126;2024-01-30T11:45:49;101793.00;;;19.20
9119;BMP180;4594;50.994;7.126;2024-01-30T11:48:15;101784.00;;;19.20
9119;BMP180;4594;50.994;7.126;2024-01-30T11:50:41;101789.00;;;19.20
9119;BMP180;4594;50.994;7.126;2024-01-30T11:53:07;101790.00;;;19.30
9119;BMP180;4594;50.994;7.126;2024-01-30T11:55:33;101777.00;;;19.30
9119;BMP180;4594;50.994;7.126;2024-01-30T11:58:01;101784.00;;;19.40
9119;BMP180;4594;50.994;7.126;2024-01-30T12:00:27;101793.00;;;19.40
9119;BMP180;4594;50.994;7.126;2024-01-30T12:02:54;101793.00;;;19.40
9119;BMP180;4594;50.994;7.126;2024-01-30T12:05:25;101801.00;;;19.50
9119;BMP180;4594;50.994;7.126;2024-01-30T12:07:51;101801.00;;;19.50
9119;BMP180;4594;50.994;7.126;2024-01-30T12:10:18;101795.00;;;19.60
9119;BMP180;4594;50.994;7.126;2024-01-30T12:12:50;101795.00;;;19.60
9119;BMP180;4594;50.994;7.126;2024-01-30T12:15:16;101790.00;;;19.70
9119;BMP180;4594;50.994;7.126;2024-01-30T12:17:42;101800.00;;;19.70
9119;BMP180;4594;50.994;7.126;2024-01-30T12:20:13;101790.00;;;19.80
9119;BMP180;4594;50.994;7.126;2024-01-30T12:22:47;101788.00;;;19.80
9119;BMP180;4594;50.994;7.126;2024-01-30T12:25:20;101797.00;;;19.90
9119;BMP180;4594;50.994;7.126;2024-01-30T12:27:49;101798.00;;;19.90
9119;BMP180;4594;50.994;7.126;2024-01-30T12:30:20;101801.00;;;19.90
9119;BMP180;4594;50.994;7.126;2024-01-30T12:32:49;101808.00;;;20.00
9119;BMP180;4594;50.994;7.126;2024-01-30T12:35:18;101794.00;;;20.00
9119;BMP180;4594;50.994;7.126;2024-01-30T12:37:45;101803.00;;;20.00
9119;BMP180;4594;50.994;7.126;2024-01-30T12:40:13;101794.00;;;20.00
9119;BMP180;4594;50.994;7.126;2024-01-30T12:42:40;101800.00;;;19.90
9119;BMP180;4594;50.994;7.126;2024-01-30T12:45:08;101806.00;;;19.90
9119;BMP180;4594;50.994;7.126;2024-01-30T12:50:49;101803.00;;;19.80
9119;BMP180;4594;50.994;7.126;2024-01-30T12:53:15;101817.00;;;19.80
9119;BMP180;4594;50.994;7.126;2024-01-30T12:55:42;101797.00;;;19.80
9119;BMP180;4594;50.994;7.126;2024-01-30T12:58:07;101805.00;;;19.80
9119;BMP180;4594;50.994;7.126;2024-01-30T13:00:33;101807.00;;;19.80
9119;BMP180;4594;50.994;7.126;2024-01-30T13:03:00;101803.00;;;19.70
9119;BMP180;4594;50.994;7.126;2024-01-30T13:05:25;101801.00;;;19.70
9119;BMP180;4594;50.994;7.126;2024-01-30T13:07:51;101804.00;;;19.70
9119;BMP180;4594;50.994;7.126;2024-01-30T13:10:18;101809.00;;;19.70
9119;BMP180;4594;50.994;7.126;2024-01-30T13:12:44;101817.00;;;19.70
9119;BMP180;4594;50.994;7.126;2024-01-30T13:15:10;101812.00;;;19.70
9119;BMP180;4594;50.994;7.126;2024-01-30T13:17:36;101815.00;;;19.70
9119;BMP180;4594;50.994;7.126;2024-01-30T13:20:02;101825.00;;;19.70
9119;BMP180;4594;50.994;7.126;2024-01-30T13:22:29;101819.00;;;19.70
9119;BMP180;4594;50.994;7.126;2024-01-30T13:24:55;101822.00;;;19.80
9119;BMP180;4594;50.994;7.126;2024-01-30T13:27:21;101824.00;;;19.80
9119;BMP180;4594;50.994;7.126;2024-01-30T13:29:46;101829.00;;;19.90
9119;BMP180;4594;50.994;7.126;2024-01-30T13:32:12;101828.00;;;19.90
9119;BMP180;4594;50.994;7.126;2024-01-30T13:34:38;101833.00;;;19.90
9119;BMP180;4594;50.994;7.126;2024-01-30T13:37:03;101834.00;;;19.90
9119;BMP180;4594;50.994;7.126;2024-01-30T13:39:29;101829.00;;;19.90
9119;BMP180;4594;50.994;7.126;2024-01-30T13:41:55;101834.00;;;19.90
9119;BMP180;4594;50.994;7.126;2024-01-30T13:44:20;101833.00;;;19.90
9119;BMP180;4594;50.994;7.126;2024-01-30T13:46:46;101837.00;;;19.90
9119;BMP180;4594;50.994;7.126;2024-01-30T13:49:12;101838.00;;;19.90
9119;BMP180;4594;50.994;7.126;2024-01-30T13:51:38;101842.00;;;19.90
9119;BMP180;4594;50.994;7.126;2024-01-30T13:54:03;101828.00;;;19.90
9119;BMP180;4594;50.994;7.126;2024-01-30T13:56:29;101836.00;;;19.90
9119;BMP180;4594;50.994;7.126;2024-01-30T13:58:55;101835.00;;;19.80
9119;BMP180;4594;50.994;7.126;2024-01-30T14:01:22;101836.00;;;19.80
9119;BMP180;4594;50.994;7.126;2024-01-30T14:03:48;101836.00;;;19.80
9119;BMP180;4594;50.994;7.126;2024-01-30T14:06:14;101837.00;;;19.80
9119;BMP180;4594;50.994;7.126;2024-01-30T14:08:40;101838.00;;;19.70
9119;BMP180;4594;50.994;7.126;2024-01-30T14:11:06;101840.00;;;19.70
9119;BMP180;4594;50.994;7.126;2024-01-30T14:13:32;101848.00;;;19.70
9119;BMP180;4594;50.994;7.126;2024-01-30T14:15:58;101840.00;;;19.70
9119;BMP180;4594;50.994;7.126;2024-01-30T14:18:24;101852.00;;;19.60
9119;BMP180;4594;50.994;7.126;2024-01-30T14:20:51;101838.00;;;19.60